Hord, Illinois
Current Conditions -  °F | °C
As of 10:15 AM on Friday 19 Dec 2014 (Local Time) from KFOA Reporting Station
Clear Clear  
Wind Chill: 27°   Ceiling: Unl
Heat Index: 31°   Visibility: 7mi
Dew Point: 25°   Wind: 5mph
Humidity: 76%   Direction: 100°E
Pressure: 30.34"   Gusts: NA
Location:  38.8267°N, 88.5024°W
Report Text: KFOA 191615Z AUTO 10004KT 7SM CLR 00/M04 A3034 RMK AO2 T10031041
Loading
Personal Weather Stations






























Interactive Weather Map New forecast layout! Learn more

10-Day Weather Forecast

Advertisements
Track Severe Weather on mobile